sensor_id;sensor_type;location;lat;lon;timestamp;P1;durP1;ratioP1;P2;durP2;ratioP2
70899;SDS011;59640;52.136;5.424;2022-10-30T14:58:25;18.05;;;6.25;;
70899;SDS011;59640;52.136;5.424;2022-10-30T15:03:14;17.30;;;6.35;;
70899;SDS011;59640;52.136;5.424;2022-10-30T15:05:47;21.10;;;7.07;;
70899;SDS011;59640;52.136;5.424;2022-10-30T15:11:31;14.20;;;6.90;;
70899;SDS011;59640;52.136;5.424;2022-10-30T15:14:05;16.45;;;6.90;;
70899;SDS011;59640;52.136;5.424;2022-10-30T15:16:46;14.48;;;6.65;;
70899;SDS011;59640;52.136;5.424;2022-10-30T15:19:14;15.35;;;6.65;;
70899;SDS011;59640;52.136;5.424;2022-10-30T15:21:41;15.23;;;6.78;;
70899;SDS011;59640;52.136;5.424;2022-10-30T15:24:17;18.85;;;6.68;;
70899;SDS011;59640;52.136;5.424;2022-10-30T15:36:51;26.23;;;10.45;;
70899;SDS011;59640;52.136;5.424;2022-10-30T15:39:18;25.67;;;11.05;;
70899;SDS011;59640;52.136;5.424;2022-10-30T15:41:46;20.58;;;10.23;;
70899;SDS011;59640;52.136;5.424;2022-10-30T15:45:33;24.88;;;9.15;;
70899;SDS011;59640;52.136;5.424;2022-10-30T15:48:15;20.15;;;8.55;;
70899;SDS011;59640;52.136;5.424;2022-10-30T15:51:32;21.00;;;8.82;;
70899;SDS011;59640;52.136;5.424;2022-10-30T15:53:44;24.48;;;8.93;;
70899;SDS011;59640;52.136;5.424;2022-10-30T15:56:16;23.67;;;9.00;;
70899;SDS011;59640;52.136;5.424;2022-10-30T15:58:50;21.33;;;8.43;;
70899;SDS011;59640;52.136;5.424;2022-10-30T16:01:44;17.95;;;8.13;;
70899;SDS011;59640;52.136;5.424;2022-10-30T16:04:18;19.33;;;8.43;;
70899;SDS011;59640;52.136;5.424;2022-10-30T16:06:50;25.15;;;8.55;;
70899;SDS011;59640;52.136;5.424;2022-10-30T16:09:21;24.48;;;8.13;;
70899;SDS011;59640;52.136;5.424;2022-10-30T16:11:47;21.33;;;8.70;;
70899;SDS011;59640;52.136;5.424;2022-10-30T16:14:16;20.40;;;8.20;;
70899;SDS011;59640;52.136;5.424;2022-10-30T16:16:44;23.13;;;9.50;;
70899;SDS011;59640;52.136;5.424;2022-10-30T16:19:18;27.45;;;9.20;;
70899;SDS011;59640;52.136;5.424;2022-10-30T16:21:54;25.38;;;8.85;;
70899;SDS011;59640;52.136;5.424;2022-10-30T16:24:22;20.45;;;9.32;;
70899;SDS011;59640;52.136;5.424;2022-10-30T16:27:05;20.05;;;8.65;;
70899;SDS011;59640;52.136;5.424;2022-10-30T16:29:32;22.80;;;7.97;;
70899;SDS011;59640;52.136;5.424;2022-10-30T16:32:00;21.25;;;7.95;;
70899;SDS011;59640;52.136;5.424;2022-10-30T16:34:27;20.88;;;7.85;;
70899;SDS011;59640;52.136;5.424;2022-10-30T16:36:57;17.33;;;6.88;;
70899;SDS011;59640;52.136;5.424;2022-10-30T16:39:23;19.42;;;6.53;;
70899;SDS011;59640;52.136;5.424;2022-10-30T16:41:50;17.25;;;6.68;;
70899;SDS011;59640;52.136;5.424;2022-10-30T16:44:18;16.92;;;6.45;;
70899;SDS011;59640;52.136;5.424;2022-10-30T16:46:54;19.45;;;6.97;;
70899;SDS011;59640;52.136;5.424;2022-10-30T16:49:25;19.85;;;7.40;;
70899;SDS011;59640;52.136;5.424;2022-10-30T16:51:55;18.02;;;6.82;;
70899;SDS011;59640;52.136;5.424;2022-10-30T16:54:25;21.15;;;7.13;;
70899;SDS011;59640;52.136;5.424;2022-10-30T16:56:54;19.20;;;6.30;;
70899;SDS011;59640;52.136;5.424;2022-10-30T16:59:23;15.23;;;6.90;;
70899;SDS011;59640;52.136;5.424;2022-10-30T17:01:53;16.05;;;5.93;;
70899;SDS011;59640;52.136;5.424;2022-10-30T17:04:22;15.65;;;5.68;;
70899;SDS011;59640;52.136;5.424;2022-10-30T17:06:48;15.73;;;5.78;;
70899;SDS011;59640;52.136;5.424;2022-10-30T17:09:20;15.20;;;5.85;;
70899;SDS011;59640;52.136;5.424;2022-10-30T17:11:59;15.00;;;5.38;;
70899;SDS011;59640;52.136;5.424;2022-10-30T17:14:28;12.13;;;5.28;;
70899;SDS011;59640;52.136;5.424;2022-10-30T17:16:55;20.83;;;7.55;;
70899;SDS011;59640;52.136;5.424;2022-10-30T17:21:55;17.08;;;4.47;;
70899;SDS011;59640;52.136;5.424;2022-10-30T17:24:32;12.70;;;4.55;;
70899;SDS011;59640;52.136;5.424;2022-10-30T17:27:00;13.82;;;6.20;;
70899;SDS011;59640;52.136;5.424;2022-10-30T17:34:43;13.77;;;4.15;;
70899;SDS011;59640;52.136;5.424;2022-10-30T17:37:10;12.50;;;4.20;;
70899;SDS011;59640;52.136;5.424;2022-10-30T17:39:36;11.50;;;4.03;;
70899;SDS011;59640;52.136;5.424;2022-10-30T17:42:02;16.52;;;4.07;;
70899;SDS011;59640;52.136;5.424;2022-10-30T17:44:30;13.93;;;4.20;;
70899;SDS011;59640;52.136;5.424;2022-10-30T17:46:59;11.07;;;3.95;;
70899;SDS011;59640;52.136;5.424;2022-10-30T17:49:30;15.40;;;4.10;;
70899;SDS011;59640;52.136;5.424;2022-10-30T17:51:57;14.07;;;4.65;;
70899;SDS011;59640;52.136;5.424;2022-10-30T17:54:24;11.70;;;5.22;;
70899;SDS011;59640;52.136;5.424;2022-10-30T17:56:50;10.55;;;4.80;;
70899;SDS011;59640;52.136;5.424;2022-10-30T17:59:17;14.82;;;4.85;;
70899;SDS011;59640;52.136;5.424;2022-10-30T18:01:44;12.90;;;4.15;;
70899;SDS011;59640;52.136;5.424;2022-10-30T18:04:11;15.43;;;4.65;;
70899;SDS011;59640;52.136;5.424;2022-10-30T18:06:46;14.50;;;3.97;;
70899;SDS011;59640;52.136;5.424;2022-10-30T18:09:12;12.77;;;3.83;;
70899;SDS011;59640;52.136;5.424;2022-10-30T18:11:39;11.75;;;3.97;;
70899;SDS011;59640;52.136;5.424;2022-10-30T18:14:05;14.07;;;4.13;;
70899;SDS011;59640;52.136;5.424;2022-10-30T18:16:32;12.85;;;4.38;;
70899;SDS011;59640;52.136;5.424;2022-10-30T18:18:58;13.10;;;4.18;;
70899;SDS011;59640;52.136;5.424;2022-10-30T18:21:24;15.18;;;4.90;;
70899;SDS011;59640;52.136;5.424;2022-10-30T18:23:52;15.23;;;4.82;;
70899;SDS011;59640;52.136;5.424;2022-10-30T18:26:20;19.65;;;5.57;;
70899;SDS011;59640;52.136;5.424;2022-10-30T18:28:48;16.20;;;5.03;;
70899;SDS011;59640;52.136;5.424;2022-10-30T18:31:16;14.68;;;5.22;;
70899;SDS011;59640;52.136;5.424;2022-10-30T18:33:44;15.35;;;5.55;;
70899;SDS011;59640;52.136;5.424;2022-10-30T18:36:12;15.48;;;5.85;;
70899;SDS011;59640;52.136;5.424;2022-10-30T18:38:42;16.83;;;6.28;;
70899;SDS011;59640;52.136;5.424;2022-10-30T18:41:16;16.95;;;6.25;;
70899;SDS011;59640;52.136;5.424;2022-10-30T18:43:45;13.55;;;5.85;;
70899;SDS011;59640;52.136;5.424;2022-10-30T18:46:12;15.35;;;6.53;;
70899;SDS011;59640;52.136;5.424;2022-10-30T18:48:39;17.50;;;7.05;;
70899;SDS011;59640;52.136;5.424;2022-10-30T18:51:06;16.70;;;7.30;;
70899;SDS011;59640;52.136;5.424;2022-10-30T18:53:39;17.55;;;7.57;;
70899;SDS011;59640;52.136;5.424;2022-10-30T18:56:08;20.65;;;7.85;;
70899;SDS011;59640;52.136;5.424;2022-10-30T18:58:34;22.60;;;9.43;;
70899;SDS011;59640;52.136;5.424;2022-10-30T19:01:01;21.98;;;7.97;;
70899;SDS011;59640;52.136;5.424;2022-10-30T19:03:43;21.15;;;8.70;;
70899;SDS011;59640;52.136;5.424;2022-10-30T19:06:11;23.17;;;7.88;;
70899;SDS011;59640;52.136;5.424;2022-10-30T19:08:39;19.52;;;8.07;;
70899;SDS011;59640;52.136;5.424;2022-10-30T19:11:05;16.23;;;7.43;;
70899;SDS011;59640;52.136;5.424;2022-10-30T19:13:32;16.08;;;6.65;;
70899;SDS011;59640;52.136;5.424;2022-10-30T19:15:58;16.00;;;7.30;;
70899;SDS011;59640;52.136;5.424;2022-10-30T19:18:26;18.05;;;7.18;;
70899;SDS011;59640;52.136;5.424;2022-10-30T19:23:40;17.73;;;7.50;;
70899;SDS011;59640;52.136;5.424;2022-10-30T19:26:06;20.30;;;6.97;;
70899;SDS011;59640;52.136;5.424;2022-10-30T19:28:32;20.48;;;7.47;;
70899;SDS011;59640;52.136;5.424;2022-10-30T19:30:59;15.57;;;6.97;;
70899;SDS011;59640;52.136;5.424;2022-10-30T19:33:25;15.95;;;7.30;;
70899;SDS011;59640;52.136;5.424;2022-10-30T19:35:53;19.35;;;7.30;;
70899;SDS011;59640;52.136;5.424;2022-10-30T19:38:20;17.38;;;7.30;;
70899;SDS011;59640;52.136;5.424;2022-10-30T19:40:47;20.50;;;8.05;;
70899;SDS011;59640;52.136;5.424;2022-10-30T19:43:13;19.40;;;7.50;;
70899;SDS011;59640;52.136;5.424;2022-10-30T19:45:40;19.80;;;7.40;;
70899;SDS011;59640;52.136;5.424;2022-10-30T19:48:16;17.73;;;7.45;;
70899;SDS011;59640;52.136;5.424;2022-10-30T19:50:54;20.92;;;8.73;;
70899;SDS011;59640;52.136;5.424;2022-10-30T19:53:20;19.48;;;7.97;;
70899;SDS011;59640;52.136;5.424;2022-10-30T19:55:47;18.92;;;7.82;;
70899;SDS011;59640;52.136;5.424;2022-10-30T19:58:14;17.80;;;7.68;;
70899;SDS011;59640;52.136;5.424;2022-10-30T20:00:42;16.60;;;7.78;;
70899;SDS011;59640;52.136;5.424;2022-10-30T20:03:11;19.17;;;8.10;;
70899;SDS011;59640;52.136;5.424;2022-10-30T20:05:40;18.15;;;8.02;;
70899;SDS011;59640;52.136;5.424;2022-10-30T20:08:12;24.92;;;9.07;;
70899;SDS011;59640;52.136;5.424;2022-10-30T20:10:41;15.82;;;8.63;;
70899;SDS011;59640;52.136;5.424;2022-10-30T20:13:09;20.13;;;9.32;;
70899;SDS011;59640;52.136;5.424;2022-10-30T20:15:36;20.13;;;9.27;;
70899;SDS011;59640;52.136;5.424;2022-10-30T20:18:09;21.85;;;9.20;;
70899;SDS011;59640;52.136;5.424;2022-10-30T20:20:37;21.92;;;10.15;;
70899;SDS011;59640;52.136;5.424;2022-10-30T20:23:03;23.45;;;8.70;;
70899;SDS011;59640;52.136;5.424;2022-10-30T20:25:30;25.02;;;9.15;;
70899;SDS011;59640;52.136;5.424;2022-10-30T20:27:58;17.80;;;8.57;;
70899;SDS011;59640;52.136;5.424;2022-10-30T20:30:31;20.15;;;8.75;;
70899;SDS011;59640;52.136;5.424;2022-10-30T20:32:58;18.20;;;8.02;;
70899;SDS011;59640;52.136;5.424;2022-10-30T20:35:25;16.98;;;7.68;;
70899;SDS011;59640;52.136;5.424;2022-10-30T20:37:56;18.58;;;8.95;;
70899;SDS011;59640;52.136;5.424;2022-10-30T20:40:24;15.57;;;7.72;;
70899;SDS011;59640;52.136;5.424;2022-10-30T20:42:50;17.63;;;7.70;;
70899;SDS011;59640;52.136;5.424;2022-10-30T20:45:22;16.77;;;6.80;;
70899;SDS011;59640;52.136;5.424;2022-10-30T20:47:49;19.67;;;7.88;;
70899;SDS011;59640;52.136;5.424;2022-10-30T20:50:16;20.77;;;7.55;;
70899;SDS011;59640;52.136;5.424;2022-10-30T20:52:43;16.95;;;6.80;;
70899;SDS011;59640;52.136;5.424;2022-10-30T20:55:10;15.13;;;6.68;;
70899;SDS011;59640;52.136;5.424;2022-10-30T20:57:37;16.13;;;7.45;;
70899;SDS011;59640;52.136;5.424;2022-10-30T21:00:05;18.60;;;7.38;;
70899;SDS011;59640;52.136;5.424;2022-10-30T21:02:32;18.67;;;7.90;;
70899;SDS011;59640;52.136;5.424;2022-10-30T21:04:59;19.10;;;7.63;;
70899;SDS011;59640;52.136;5.424;2022-10-30T21:07:46;19.60;;;7.25;;
70899;SDS011;59640;52.136;5.424;2022-10-30T21:10:12;17.35;;;7.05;;
70899;SDS011;59640;52.136;5.424;2022-10-30T21:12:39;15.10;;;7.35;;
70899;SDS011;59640;52.136;5.424;2022-10-30T21:15:05;16.67;;;7.80;;
70899;SDS011;59640;52.136;5.424;2022-10-30T21:17:32;19.27;;;7.70;;
70899;SDS011;59640;52.136;5.424;2022-10-30T21:19:59;15.88;;;7.68;;
70899;SDS011;59640;52.136;5.424;2022-10-30T21:22:25;16.13;;;8.00;;
70899;SDS011;59640;52.136;5.424;2022-10-30T21:24:51;23.52;;;8.57;;
70899;SDS011;59640;52.136;5.424;2022-10-30T21:27:18;16.20;;;7.60;;
70899;SDS011;59640;52.136;5.424;2022-10-30T21:29:44;19.00;;;7.90;;
70899;SDS011;59640;52.136;5.424;2022-10-30T21:32:11;20.88;;;9.10;;
70899;SDS011;59640;52.136;5.424;2022-10-30T21:34:38;19.63;;;8.57;;
70899;SDS011;59640;52.136;5.424;2022-10-30T21:37:05;18.27;;;8.20;;
70899;SDS011;59640;52.136;5.424;2022-10-30T21:39:31;19.77;;;8.40;;
70899;SDS011;59640;52.136;5.424;2022-10-30T21:41:57;20.35;;;8.38;;
70899;SDS011;59640;52.136;5.424;2022-10-30T21:44:24;18.45;;;7.82;;
70899;SDS011;59640;52.136;5.424;2022-10-30T21:46:50;23.15;;;9.77;;
70899;SDS011;59640;52.136;5.424;2022-10-30T21:49:17;19.27;;;8.13;;
70899;SDS011;59640;52.136;5.424;2022-10-30T21:51:43;20.02;;;8.38;;
70899;SDS011;59640;52.136;5.424;2022-10-30T21:54:10;17.42;;;8.10;;
70899;SDS011;59640;52.136;5.424;2022-10-30T21:56:37;22.48;;;8.98;;
70899;SDS011;59640;52.136;5.424;2022-10-30T21:59:03;19.42;;;8.18;;
70899;SDS011;59640;52.136;5.424;2022-10-30T22:01:33;18.48;;;8.57;;
70899;SDS011;59640;52.136;5.424;2022-10-30T22:04:01;16.63;;;8.02;;
70899;SDS011;59640;52.136;5.424;2022-10-30T22:06:29;19.92;;;7.55;;
70899;SDS011;59640;52.136;5.424;2022-10-30T22:08:56;20.33;;;8.27;;
70899;SDS011;59640;52.136;5.424;2022-10-30T22:11:23;17.98;;;7.78;;
70899;SDS011;59640;52.136;5.424;2022-10-30T22:14:01;17.85;;;7.28;;
70899;SDS011;59640;52.136;5.424;2022-10-30T22:16:29;16.23;;;6.65;;
70899;SDS011;59640;52.136;5.424;2022-10-30T22:18:57;14.90;;;7.20;;
70899;SDS011;59640;52.136;5.424;2022-10-30T22:21:23;14.15;;;7.20;;
70899;SDS011;59640;52.136;5.424;2022-10-30T22:23:50;18.60;;;7.00;;
70899;SDS011;59640;52.136;5.424;2022-10-30T22:26:17;17.52;;;6.93;;
70899;SDS011;59640;52.136;5.424;2022-10-30T22:28:45;16.92;;;7.38;;
70899;SDS011;59640;52.136;5.424;2022-10-30T22:31:15;19.13;;;6.97;;
70899;SDS011;59640;52.136;5.424;2022-10-30T22:33:43;18.33;;;7.25;;
70899;SDS011;59640;52.136;5.424;2022-10-30T22:36:17;13.48;;;6.55;;
70899;SDS011;59640;52.136;5.424;2022-10-30T22:39:10;16.05;;;6.57;;
70899;SDS011;59640;52.136;5.424;2022-10-30T22:41:37;16.55;;;6.93;;
70899;SDS011;59640;52.136;5.424;2022-10-30T22:44:05;15.25;;;6.55;;
70899;SDS011;59640;52.136;5.424;2022-10-30T22:46:34;13.70;;;5.63;;
70899;SDS011;59640;52.136;5.424;2022-10-30T22:49:00;16.55;;;6.00;;
70899;SDS011;59640;52.136;5.424;2022-10-30T22:51:26;14.77;;;6.13;;
70899;SDS011;59640;52.136;5.424;2022-10-30T22:53:54;14.90;;;6.38;;
70899;SDS011;59640;52.136;5.424;2022-10-30T22:56:23;12.90;;;5.43;;
70899;SDS011;59640;52.136;5.424;2022-10-30T22:58:51;15.70;;;5.70;;
70899;SDS011;59640;52.136;5.424;2022-10-30T23:01:19;13.25;;;6.07;;
70899;SDS011;59640;52.136;5.424;2022-10-30T23:03:51;12.50;;;5.72;;
70899;SDS011;59640;52.136;5.424;2022-10-30T23:06:21;16.88;;;5.93;;
70899;SDS011;59640;52.136;5.424;2022-10-30T23:08:48;12.82;;;6.35;;
70899;SDS011;59640;52.136;5.424;2022-10-30T23:11:16;16.38;;;6.55;;
70899;SDS011;59640;52.136;5.424;2022-10-30T23:13:42;16.23;;;6.80;;
70899;SDS011;59640;52.136;5.424;2022-10-30T23:18:38;15.52;;;6.05;;
70899;SDS011;59640;52.136;5.424;2022-10-30T23:21:05;19.45;;;6.63;;
70899;SDS011;59640;52.136;5.424;2022-10-30T23:23:34;13.95;;;7.00;;
70899;SDS011;59640;52.136;5.424;2022-10-30T23:26:06;11.93;;;5.38;;
70899;SDS011;59640;52.136;5.424;2022-10-30T23:28:34;16.83;;;6.18;;
70899;SDS011;59640;52.136;5.424;2022-10-30T23:31:05;15.13;;;5.53;;
70899;SDS011;59640;52.136;5.424;2022-10-30T23:33:32;14.32;;;5.90;;
70899;SDS011;59640;52.136;5.424;2022-10-30T23:35:59;14.88;;;5.78;;
70899;SDS011;59640;52.136;5.424;2022-10-30T23:38:29;13.95;;;5.88;;
70899;SDS011;59640;52.136;5.424;2022-10-30T23:40:55;16.10;;;6.35;;
70899;SDS011;59640;52.136;5.424;2022-10-30T23:43:21;17.10;;;6.35;;
70899;SDS011;59640;52.136;5.424;2022-10-30T23:45:48;15.82;;;5.90;;
70899;SDS011;59640;52.136;5.424;2022-10-30T23:48:14;14.93;;;5.55;;
70899;SDS011;59640;52.136;5.424;2022-10-30T23:50:40;14.80;;;6.35;;
70899;SDS011;59640;52.136;5.424;2022-10-30T23:53:07;15.00;;;5.80;;
70899;SDS011;59640;52.136;5.424;2022-10-30T23:55:33;11.57;;;5.43;;
70899;SDS011;59640;52.136;5.424;2022-10-30T23:57:59;16.50;;;6.32;;
